createdAt,value
2018-08-09T00:07:31.893Z,0
2018-08-09T00:17:31.674Z,0
2018-08-09T00:27:31.358Z,0
2018-08-09T00:37:31.152Z,0
2018-08-09T00:47:31.194Z,0
2018-08-09T00:57:31.077Z,0
2018-08-09T01:07:31.957Z,0
2018-08-09T01:17:31.802Z,0
2018-08-09T01:27:31.090Z,0
2018-08-09T01:37:31.221Z,0
2018-08-09T01:47:32.023Z,0
2018-08-09T01:57:31.182Z,0
2018-08-09T02:07:31.272Z,0
2018-08-09T02:17:31.250Z,0
2018-08-09T02:27:31.137Z,0
2018-08-09T02:37:31.271Z,0
2018-08-09T02:47:31.359Z,0
2018-08-09T02:57:31.272Z,0
2018-08-09T03:07:31.253Z,0
2018-08-09T03:17:31.241Z,4
2018-08-09T03:28:58.545Z,4
2018-08-09T03:38:58.690Z,16
2018-08-09T03:48:58.671Z,64
2018-08-09T03:58:59.096Z,180
2018-08-09T04:08:58.672Z,392
2018-08-09T04:18:58.943Z,740
2018-08-09T04:28:58.704Z,868
2018-08-09T04:38:58.651Z,1592
2018-08-09T04:48:58.701Z,2896
2018-08-09T04:58:58.739Z,3972
2018-08-09T05:09:23.663Z,1756
2018-08-09T05:18:58.994Z,2568
2018-08-09T05:28:58.772Z,2524
2018-08-09T05:38:58.753Z,2168
2018-08-09T05:48:58.992Z,2672
2018-08-09T05:58:58.813Z,3168
2018-08-09T06:08:58.831Z,4144
2018-08-09T06:18:58.900Z,1688
2018-08-09T06:35:27.296Z,2396
2018-08-09T06:38:58.759Z,4564
2018-08-09T06:48:58.890Z,5788
2018-08-09T06:58:58.832Z,2516
2018-08-09T07:08:58.902Z,3044
2018-08-09T07:18:58.862Z,8024
2018-08-09T07:28:58.874Z,4068
2018-08-09T07:38:58.866Z,8652
2018-08-09T07:48:58.918Z,30272
2018-08-09T07:58:58.918Z,10884
2018-08-09T08:08:58.826Z,9144
2018-08-09T08:18:58.992Z,5952
2018-08-09T08:28:58.897Z,11084
2018-08-09T08:38:58.947Z,19936
2018-08-09T08:48:58.888Z,54912
2018-08-09T08:58:58.873Z,14944
2018-08-09T09:08:58.895Z,13888
2018-08-09T09:18:58.902Z,15088
2018-08-09T09:28:59.131Z,9388
2018-08-09T09:38:59.203Z,15240
2018-08-09T09:48:58.983Z,16640
2018-08-09T09:58:58.960Z,21696
2018-08-09T10:08:58.921Z,24000
2018-08-09T10:18:58.947Z,16668
2018-08-09T10:28:58.905Z,9424
2018-08-09T10:38:58.896Z,8672
2018-08-09T10:48:59.036Z,7220
2018-08-09T10:58:58.893Z,7220
2018-08-09T11:08:59.536Z,16720
2018-08-09T11:18:59.478Z,19552
2018-08-09T11:28:58.861Z,14668
2018-08-09T11:38:59.046Z,6924
2018-08-09T11:48:59.211Z,6116
2018-08-09T11:58:58.940Z,5924
2018-08-09T12:08:59.912Z,6040
2018-08-09T12:18:59.434Z,6392
2018-08-09T12:28:59.004Z,7536
2018-08-09T12:38:59.021Z,10284
2018-08-09T12:48:58.981Z,10772
2018-08-09T12:59:02.419Z,14084
2018-08-09T13:08:58.964Z,13972
2018-08-09T13:18:59.126Z,10300
2018-08-09T13:28:59.080Z,7560
2018-08-09T13:38:58.988Z,4512
2018-08-09T13:48:59.102Z,12420
2018-08-09T13:59:00.252Z,4820
2018-08-09T14:09:00.120Z,1384
2018-08-09T14:19:00.373Z,312
2018-08-09T14:28:59.421Z,1576
2018-08-09T14:39:03.431Z,1792
2018-08-09T14:49:00.332Z,2056
2018-08-09T14:58:59.742Z,1928
2018-08-09T15:08:59.093Z,2300
2018-08-09T15:18:59.872Z,4788
2018-08-09T15:28:59.285Z,7912
2018-08-09T15:38:58.965Z,7612
2018-08-09T15:49:01.829Z,7200
2018-08-09T15:58:59.004Z,6972
2018-08-09T16:08:58.987Z,8284
2018-08-09T16:18:59.038Z,7764
2018-08-09T16:28:59.003Z,7292
2018-08-09T16:38:58.985Z,6600
2018-08-09T16:48:59.220Z,4424
2018-08-09T16:58:58.969Z,3216
2018-08-09T17:08:59.116Z,3136
2018-08-09T17:18:59.055Z,4628
2018-08-09T17:28:59.204Z,4908
2018-08-09T17:39:00.460Z,5056
2018-08-09T17:48:59.007Z,3120
2018-08-09T17:58:59.029Z,2484
2018-08-09T18:08:59.116Z,2372
2018-08-09T18:18:59.044Z,1784
2018-08-09T18:29:03.160Z,868
2018-08-09T18:38:59.096Z,280
2018-08-09T18:48:59.000Z,36
2018-08-09T18:59:00.652Z,136
2018-08-09T19:08:59.740Z,84
2018-08-09T19:19:54.724Z,36
2018-08-09T19:29:49.589Z,12
2018-08-09T19:38:59.081Z,4
2018-08-09T19:48:59.183Z,0
2018-08-09T19:58:59.269Z,0
2018-08-09T20:08:59.002Z,0
2018-08-09T20:18:59.063Z,0
2018-08-09T20:28:59.079Z,0
2018-08-09T20:38:59.101Z,0
2018-08-09T20:48:59.087Z,0
2018-08-09T20:58:59.030Z,0
2018-08-09T21:08:59.147Z,0
2018-08-09T21:18:59.043Z,0
2018-08-09T21:28:59.076Z,4
2018-08-09T21:38:59.536Z,0
2018-08-09T21:49:05.755Z,0
2018-08-09T21:59:01.816Z,0
2018-08-09T22:08:59.328Z,0
2018-08-09T22:19:01.946Z,0
2018-08-09T22:28:59.211Z,0
2018-08-09T22:39:00.517Z,0
2018-08-09T22:48:59.256Z,0
2018-08-09T22:58:59.129Z,0
2018-08-09T23:08:59.334Z,0
2018-08-09T23:18:59.149Z,0
2018-08-09T23:28:59.055Z,0
2018-08-09T23:38:59.110Z,0
2018-08-09T23:48:59.078Z,0
2018-08-09T23:58:59.000Z,0
